x

Buoy E01 - Central Maine Shelf (44032) Wave Buoy

8:04am - Sat 29th Apr 2017 All times are EDT. -4 hours from GMT.

  • Sig Wave height 3.9ft
  • Peak Period 8s
  • Wind
    4mph, 7mph gusts
  • Sea Temp 42°f
  • 空気 Temp 46°f
  • Sea Pressure 1013.8mb
  • Buoy E01 - Central Maine Shelf
  • Buoy E01 - Central Maine Shelf

More Historic Weather Station data

Upgrade to MSW Pro to gain access to the past 30 days of data for over 8000 Wavebouys and Weather Stations around the globe.

Join Pro

Comparision Forecast

View Surf forecast
   
Sat 04/29 8:04am 4ft 8s 4 7 mph 1013.8mb 42f 46f
7:04am 4ft 8s 7 9 mph 1013.8mb 42f 45f
6:04am 3.5ft 8s 7 9 mph 1014.3mb 41f 45f
5:04am 4ft 8s 4 7 mph 1013.9mb 42f 46f
4:04am 3ft 8s 2 4 mph 1013.5mb 42f 46f
3:04am 3ft 8s 11 22 mph 1014.3mb 42f 44f
2:04am 3.5ft 11s 9 11 mph 1013.9mb 43f 43f
1:04am 4ft 11s 4 7 mph 1013.8mb 42f 41f
12:04am 4.5ft 8s  -  2 mph 1013.6mb 42f 44f
Fri 04/28 11:04pm 4.5ft 8s 2 4 mph 1013.8mb 41f 41f
10:04pm 5ft 8s 4 7 mph 1013.9mb 42f 42f
9:04pm 6ft 8s 4 7 mph 1013.9mb 41f 42f
8:04pm 5ft 8s 2 4 mph 1013.8mb 41f 43f
7:04pm 4.5ft 8s 4 7 mph 1013.2mb 42f 43f
6:04pm 4ft 8s 4 7 mph 1013.1mb 42f 43f
5:04pm 4ft 8s 7 9 mph 1013.1mb 42f 44f
4:04pm 4.5ft 11s 4
mph
1013.3mb 42f 45f
3:04pm 4ft 11s 4
mph
1013.4mb 42f 44f
2:04pm 4.5ft 11s 2 4 mph 1013.8mb 43f 44f
1:04pm 5ft 11s 2 4 mph 1014.1mb 43f 43f
12:04pm 4.5ft 11s 4 7 mph 1013.9mb 43f 43f
11:04am 5ft 11s 2 4 mph 1014.5mb 43f 45f
10:04am 5ft 11s 2 4 mph 1015.1mb 42f 43f
9:04am 6ft 11s 2 4 mph 1015.2mb 42f 43f
8:04am 6ft 11s 2 4 mph 1015.1mb 42f 42f
7:04am 7ft 11s 9
mph
1014.6mb 42f 43f
6:04am 6.5ft 11s 9 11 mph 1014.4mb 41f 44f
4:04am 6ft 11s 7 9 mph 1014.2mb 42f 43f
3:04am 5.5ft 11s 7
mph
1013.9mb 42f 42f
2:04am 6ft 11s 4 7 mph 1013.9mb 42f 42f
1:04am 6ft 11s 4 7 mph 1014.1mb 42f 42f
12:04am 6ft 11s 2 4 mph 1014.1mb 42f 42f
Thu 04/27 11:04pm 5ft 11s 2
mph
1014.4mb 42f 42f
10:04pm 5.5ft 11s 2 4 mph 1014.3mb 42f 42f
9:04pm 6.5ft 11s 4 7 mph 1014.2mb 42f 42f
8:04pm 9ft 11s 16 22 mph 1013.4mb 42f 42f
7:04pm 7.5ft 11s 9 11 mph 1013mb 42f 42f
6:04pm 7ft 11s 9 11 mph 1013.5mb 42f 42f
5:04pm 8ft 11s 7 9 mph 1013.8mb 42f 41f
4:04pm 7ft 11s 7 9 mph 1013.6mb 42f 41f
3:04pm 6ft 11s 7
mph
1013.9mb 42f 42f
2:04pm 6ft 11s 9
mph
1013.7mb 42f 42f
1:04pm 5.5ft 11s 9 11 mph 1013.3mb 42f 42f
12:04pm 6ft 11s 9 13 mph 1013.5mb 42f 42f
11:04am 7ft 11s 9 11 mph 1013.8mb 42f 42f
10:04am 7.5ft 11s 7 9 mph 1013.9mb 42f 42f
9:04am 9ft 11s 9 11 mph 1013.2mb 42f 42f
8:04am 7.5ft 8s 9 11 mph 1013.6mb 41f 42f
7:04am 8.5ft 11s 11 13 mph 1013.2mb 41f 42f
6:04am 9ft 11s 7 9 mph 1012.6mb 41f 42f
5:04am 8.5ft 11s 11
mph
1012.3mb 41f 42f
4:04am 10ft 11s 9
mph
1012.3mb 41f 42f
3:04am 8ft 11s 4 7 mph 1012.3mb 41f 42f
2:04am 7.5ft 11s 4
mph
1012.2mb 41f 43f
1:04am 6.5ft 11s 11 16 mph 1011.8mb 41f 44f
12:04am 7ft 11s 16 18 mph 1011.4mb 41f 45f
Wed 04/26 11:04pm 7ft 8s 18 20 mph 1011.6mb 41f 45f
10:04pm 8ft 11s 13 18 mph 1012.3mb 42f 45f
9:04pm 7.5ft 8s 13 16 mph 1012.8mb 42f 44f
8:04pm 7.5ft 11s 16 18 mph 1012.8mb 42f 45f
7:04pm 8.5ft 11s 16 18 mph 1012.7mb 42f 45f
6:04pm 8ft 11s 20 22 mph 1012.5mb 42f 46f
5:04pm 7ft 11s 18 20 mph 1012.3mb 42f 46f
4:04pm 7.5ft 11s 18 20 mph 1012.8mb 42f 46f
3:04pm 7ft 11s 16 18 mph 1013.5mb 42f 46f
2:04pm 6ft 6s 18 20 mph 1013.5mb 42f 46f
1:04pm 5ft 6s 18 20 mph 1013.9mb 41f 46f
12:04pm 5.5ft 6s 16 18 mph 1014.3mb 41f 45f
11:04am 5.5ft 6s 16 18 mph 1015.2mb 42f 45f
10:04am 4.5ft 6s 11 13 mph 1015.7mb 41f 44f
9:04am 5ft 6s 16 18 mph 1015.8mb 41f 44f
8:04am 5.5ft 6s 16 18 mph 1016.1mb 41f 43f
7:04am 5.5ft 6s 13 16 mph 1016.5mb 41f 43f
5:04am 6ft 8s 18 20 mph 1016.7mb 42f 43f
4:04am 6ft 6s 20 25 mph 1017.2mb 42f 43f
3:04am 6ft 6s 20 25 mph 1018.2mb 42f 43f
2:04am 7ft 6s 18 22 mph 1019.3mb 42f 42f
1:04am 6.5ft 6s 20 25 mph 1020.2mb 42f 42f
12:04am 6ft 6s 18 22 mph 1021.1mb 42f 41f
Tue 04/25 10:04pm 5ft 6s 18 22 mph 1023.3mb 42f 41f
9:04pm 5ft 5s 18 22 mph 1024.2mb 42f 41f
8:04pm 5ft 5s 20 22 mph 1024.3mb 42f 41f
7:04pm 4.5ft 5s 18 20 mph 1025.3mb 42f 41f
6:04pm 4ft 5s 18 22 mph 1026mb 42f 41f
5:04pm 3.5ft 5s 18 22 mph 1026.2mb 42f 40f
4:04pm 3.5ft 5s 18 20 mph 1027.1mb 42f 41f
3:04pm 3.5ft 5s 20 25 mph 1027.4mb 42f 41f
2:04pm 4ft 5s 20 25 mph 1027.8mb 42f 41f